»·PEaware :: XACAM KOXR-KLAS

XACAM :: KOXR-KLAS

FLIGHT INFORMATION

Flight Status: Arrived
Operator: Unknown
More flights by this operator :: More flights under this callsign
Pilot: Rafael C. (24230)
Aircraft: BOEING 727-100
(B721)
More flights by this aircraft type
Origin: KOXR Oxnard
United States
Destination: KLAS McCarran Intl
United States
More flights between these airports :: More routes between these airports
Route: +CMA6 FIM V386 PMD DAG CLARR3
File this flight plan on PilotEdge
Remarks:
Altitude:
(Current/Filed)
28,000ft
Speed:
(Current/Filed)
450kts
Departed: 12-Oct-19 11:58 AM
Arrived: 12-Oct-19 12:45 PM
Distance/Time
Traveled:
229nm/0:46
Distance/Time
To Go:
Arrived

Flight Plot

Page will automatically refresh every two minutes.

Flight plan parsing failed; only flown route is shown


Map Options




Map Legend


Flown Route
Filed Route
Departure Airport
Arrival Airport
Navaid (VOR, NDB)
Fix

Horizontal Profiles

Position Reports

Time Latitude Longitude Heading Altitude Ground
Speed
12-Oct-19 11:26 34.199411 -119.213543 0 42ft 0kts
12-Oct-19 11:27 34.199411 -119.213543 90 43ft 0kts
12-Oct-19 11:28 34.199411 -119.213543 90 43ft 0kts
12-Oct-19 11:29 34.199411 -119.213543 90 43ft 0kts
12-Oct-19 11:30 34.199411 -119.213543 90 43ft 0kts
12-Oct-19 11:31 34.199411 -119.213543 90 43ft 0kts
12-Oct-19 11:32 34.199411 -119.213543 90 43ft 0kts
12-Oct-19 11:33 34.199411 -119.213543 90 43ft 0kts
12-Oct-19 11:34 34.199411 -119.213543 90 43ft 0kts
12-Oct-19 11:35 34.199411 -119.213543 90 43ft 0kts
12-Oct-19 11:36 34.199411 -119.213543 90 43ft 0kts
12-Oct-19 11:37 34.199411 -119.213543 90 43ft 0kts
12-Oct-19 11:38 34.199411 -119.213543 90 43ft 0kts
12-Oct-19 11:39 34.199411 -119.213543 90 43ft 0kts
12-Oct-19 11:40 34.199411 -119.213543 90 43ft 0kts
12-Oct-19 11:41 34.199411 -119.213543 90 43ft 0kts
12-Oct-19 11:42 34.199411 -119.213543 90 43ft 0kts
12-Oct-19 11:43 34.199411 -119.213543 90 43ft 0kts
12-Oct-19 11:44 34.199411 -119.213543 90 43ft 0kts
12-Oct-19 11:45 34.199411 -119.213543 90 43ft 0kts
12-Oct-19 11:46 34.199411 -119.213543 89 43ft 0kts
12-Oct-19 11:47 34.199411 -119.213542 89 43ft 0kts
12-Oct-19 11:48 34.199411 -119.213542 90 43ft 0kts
12-Oct-19 11:49 34.199411 -119.213542 90 43ft 0kts
12-Oct-19 11:50 34.199411 -119.213542 90 43ft 0kts
12-Oct-19 11:51 34.199411 -119.213542 90 43ft 0kts
12-Oct-19 11:52 34.199411 -119.213542 90 43ft 0kts
12-Oct-19 11:53 34.199608 -119.213000 59 43ft 14kts
12-Oct-19 11:54 34.199784 -119.205312 90 49ft 26kts
12-Oct-19 11:55 34.199883 -119.197631 32 54ft 0kts
12-Oct-19 11:56 34.200189 -119.197528 5 54ft 10kts
12-Oct-19 11:57 34.201055 -119.226314 271 1290ft 157kts
12-Oct-19 11:58 34.240638 -119.233146 69 4257ft 221kts
12-Oct-19 11:59 34.207766 -119.166482 113 7413ft 261kts
12-Oct-19 12:00 34.217911 -119.073559 87 7985ft 299kts
12-Oct-19 12:01 34.218999 -118.975228 83 8148ft 278kts
12-Oct-19 12:02 34.276354 -118.942339 351 8121ft 264kts
12-Oct-19 12:03 34.345458 -118.906007 36 9830ft 310kts
12-Oct-19 12:04 34.375733 -118.816401 106 13517ft 331kts
12-Oct-19 12:05 34.420301 -118.709199 55 14015ft 408kts
12-Oct-19 12:06 34.447243 -118.586805 72 13989ft 347kts
12-Oct-19 12:07 34.484694 -118.483945 64 13997ft 323kts
12-Oct-19 12:08 34.526544 -118.390087 63 13998ft 309kts
12-Oct-19 12:09 34.557936 -118.296270 70 13998ft 298kts
12-Oct-19 12:10 34.586883 -118.198812 68 14004ft 317kts
12-Oct-19 12:11 34.621843 -118.092665 68 15137ft 363kts
12-Oct-19 12:12 34.663272 -117.981364 63 19056ft 365kts
12-Oct-19 12:13 34.692756 -117.859793 76 21755ft 391kts
12-Oct-19 12:14 34.713561 -117.724079 79 23114ft 426kts
12-Oct-19 12:15 34.735851 -117.580098 76 23129ft 440kts
12-Oct-19 12:16 34.767063 -117.435586 71 23125ft 441kts
12-Oct-19 12:17 34.805261 -117.293429 70 23122ft 440kts
12-Oct-19 12:18 34.841285 -117.151549 73 23121ft 439kts
12-Oct-19 12:19 34.871336 -117.007152 75 23116ft 439kts
12-Oct-19 12:20 34.900566 -116.861862 74 26333ft 434kts
12-Oct-19 12:21 34.932196 -116.717110 73 27120ft 454kts
12-Oct-19 12:22 34.964993 -116.563426 74 27113ft 480kts
12-Oct-19 12:23 35.054064 -116.454346 23 27107ft 474kts
12-Oct-19 12:24 35.146861 -116.340153 46 27109ft 480kts
12-Oct-19 12:25 35.229817 -116.232901 44 26861ft 379kts
12-Oct-19 12:26 35.299438 -116.143470 44 22238ft 361kts
12-Oct-19 12:27 35.366611 -116.057297 45 18638ft 340kts
12-Oct-19 12:28 35.430985 -115.973912 46 16205ft 330kts
12-Oct-19 12:29 35.492551 -115.892803 46 14675ft 321kts
12-Oct-19 12:30 35.552334 -115.813380 47 13220ft 310kts
12-Oct-19 12:31 35.608745 -115.738264 47 13055ft 292kts
12-Oct-19 12:32 35.669986 -115.662442 34 13070ft 333kts
12-Oct-19 12:33 35.728381 -115.579802 70 13126ft 312kts
12-Oct-19 12:34 35.754662 -115.480372 72 11802ft 299kts
12-Oct-19 12:35 35.779992 -115.383555 71 10375ft 292kts
12-Oct-19 12:36 35.830363 -115.312692 30 9275ft 236kts
12-Oct-19 12:37 35.882986 -115.279832 26 8158ft 213kts
12-Oct-19 12:38 35.937690 -115.248999 25 6658ft 214kts
12-Oct-19 12:39 35.984114 -115.222484 25 5116ft 166kts
12-Oct-19 12:40 36.022785 -115.200458 23 3864ft 133kts
12-Oct-19 12:41 36.050847 -115.184382 23 2933ft 123kts
12-Oct-19 12:42 36.076766 -115.169580 23 2233ft 120kts
12-Oct-19 12:43 36.094492 -115.159411 24 2110ft 49kts
12-Oct-19 12:44 36.098935 -115.157638 297 2096ft 0kts
12-Oct-19 12:45 36.100342 -115.159191 336 2097ft 0kts
12-Oct-19 12:46 36.100341 -115.159191 336 2097ft 0kts

Navigation Log

Ident Type
Flight plan parsing failed, navigation log unavailable